sensor_id;sensor_type;location;lat;lon;timestamp;temperature;humidity
36498;DHT22;22513;51.222;6.480;2024-02-28T00:02:21;20.50;52.10
36498;DHT22;22513;51.222;6.480;2024-02-28T00:04:47;20.50;52.10
36498;DHT22;22513;51.222;6.480;2024-02-28T00:07:13;20.50;52.10
36498;DHT22;22513;51.222;6.480;2024-02-28T00:09:38;20.50;52.10
36498;DHT22;22513;51.222;6.480;2024-02-28T00:12:04;20.40;52.10
36498;DHT22;22513;51.222;6.480;2024-02-28T00:14:30;20.50;52.10
36498;DHT22;22513;51.222;6.480;2024-02-28T00:16:55;20.40;52.10
36498;DHT22;22513;51.222;6.480;2024-02-28T00:19:21;20.40;52.10
36498;DHT22;22513;51.222;6.480;2024-02-28T00:21:50;20.50;52.20
36498;DHT22;22513;51.222;6.480;2024-02-28T00:24:16;20.40;52.10
36498;DHT22;22513;51.222;6.480;2024-02-28T00:26:42;20.40;52.10
36498;DHT22;22513;51.222;6.480;2024-02-28T00:29:09;20.40;52.10
36498;DHT22;22513;51.222;6.480;2024-02-28T00:31:35;20.50;52.20
36498;DHT22;22513;51.222;6.480;2024-02-28T00:34:00;20.40;52.20
36498;DHT22;22513;51.222;6.480;2024-02-28T00:36:26;20.40;52.10
36498;DHT22;22513;51.222;6.480;2024-02-28T00:38:52;20.40;52.20
36498;DHT22;22513;51.222;6.480;2024-02-28T00:41:17;20.40;52.20
36498;DHT22;22513;51.222;6.480;2024-02-28T00:43:43;20.40;52.20
36498;DHT22;22513;51.222;6.480;2024-02-28T00:46:08;20.50;52.20
36498;DHT22;22513;51.222;6.480;2024-02-28T00:48:38;20.40;52.20
36498;DHT22;22513;51.222;6.480;2024-02-28T00:51:04;20.40;52.20
36498;DHT22;22513;51.222;6.480;2024-02-28T00:53:29;20.40;52.20
36498;DHT22;22513;51.222;6.480;2024-02-28T00:55:55;20.40;52.20
36498;DHT22;22513;51.222;6.480;2024-02-28T00:58:21;20.40;52.20
36498;DHT22;22513;51.222;6.480;2024-02-28T01:00:48;20.50;52.30
36498;DHT22;22513;51.222;6.480;2024-02-28T01:03:14;20.40;52.20
36498;DHT22;22513;51.222;6.480;2024-02-28T01:05:41;20.40;52.20
36498;DHT22;22513;51.222;6.480;2024-02-28T01:08:07;20.40;52.30
36498;DHT22;22513;51.222;6.480;2024-02-28T01:10:33;20.40;52.20
36498;DHT22;22513;51.222;6.480;2024-02-28T01:12:59;20.40;52.30
36498;DHT22;22513;51.222;6.480;2024-02-28T01:15:25;20.40;52.30
36498;DHT22;22513;51.222;6.480;2024-02-28T01:17:50;20.40;52.30
36498;DHT22;22513;51.222;6.480;2024-02-28T01:20:16;20.40;52.30
36498;DHT22;22513;51.222;6.480;2024-02-28T01:22:41;20.30;52.20
36498;DHT22;22513;51.222;6.480;2024-02-28T01:25:07;20.40;52.30
36498;DHT22;22513;51.222;6.480;2024-02-28T01:27:33;20.40;52.30
36498;DHT22;22513;51.222;6.480;2024-02-28T01:30:00;20.40;52.30
36498;DHT22;22513;51.222;6.480;2024-02-28T01:32:26;20.40;52.30
36498;DHT22;22513;51.222;6.480;2024-02-28T01:34:51;20.30;52.30
36498;DHT22;22513;51.222;6.480;2024-02-28T01:37:17;20.40;52.30
36498;DHT22;22513;51.222;6.480;2024-02-28T01:39:42;20.40;52.30
36498;DHT22;22513;51.222;6.480;2024-02-28T01:42:08;20.40;52.30
36498;DHT22;22513;51.222;6.480;2024-02-28T01:44:40;20.40;52.30
36498;DHT22;22513;51.222;6.480;2024-02-28T01:47:06;20.40;52.30
36498;DHT22;22513;51.222;6.480;2024-02-28T01:49:32;20.40;52.30
36498;DHT22;22513;51.222;6.480;2024-02-28T01:51:58;20.40;52.30
36498;DHT22;22513;51.222;6.480;2024-02-28T01:54:24;20.40;52.30
36498;DHT22;22513;51.222;6.480;2024-02-28T01:56:50;20.30;52.30
36498;DHT22;22513;51.222;6.480;2024-02-28T01:59:16;20.40;52.30
36498;DHT22;22513;51.222;6.480;2024-02-28T02:01:43;20.30;52.30
36498;DHT22;22513;51.222;6.480;2024-02-28T02:04:08;20.30;52.30
36498;DHT22;22513;51.222;6.480;2024-02-28T02:06:37;20.30;52.30
36498;DHT22;22513;51.222;6.480;2024-02-28T02:09:04;20.30;52.30
36498;DHT22;22513;51.222;6.480;2024-02-28T02:11:29;20.40;52.40
36498;DHT22;22513;51.222;6.480;2024-02-28T02:13:55;20.30;52.30
36498;DHT22;22513;51.222;6.480;2024-02-28T02:16:21;20.30;52.30
36498;DHT22;22513;51.222;6.480;2024-02-28T02:18:51;20.40;52.40
36498;DHT22;22513;51.222;6.480;2024-02-28T02:21:23;20.30;52.40
36498;DHT22;22513;51.222;6.480;2024-02-28T02:23:52;20.30;52.40
36498;DHT22;22513;51.222;6.480;2024-02-28T02:26:18;20.30;52.30
36498;DHT22;22513;51.222;6.480;2024-02-28T02:28:43;20.40;52.40
36498;DHT22;22513;51.222;6.480;2024-02-28T02:31:11;20.30;52.40
36498;DHT22;22513;51.222;6.480;2024-02-28T02:33:37;20.40;52.40
36498;DHT22;22513;51.222;6.480;2024-02-28T02:36:03;20.30;52.40
36498;DHT22;22513;51.222;6.480;2024-02-28T02:38:28;20.30;52.40
36498;DHT22;22513;51.222;6.480;2024-02-28T02:40:54;20.30;52.40
36498;DHT22;22513;51.222;6.480;2024-02-28T02:43:19;20.40;52.60
36498;DHT22;22513;51.222;6.480;2024-02-28T02:45:45;20.30;52.40
36498;DHT22;22513;51.222;6.480;2024-02-28T02:48:11;20.30;52.40
36498;DHT22;22513;51.222;6.480;2024-02-28T02:53:03;20.30;52.40
36498;DHT22;22513;51.222;6.480;2024-02-28T02:55:29;20.30;52.40
36498;DHT22;22513;51.222;6.480;2024-02-28T02:57:54;20.30;52.40
36498;DHT22;22513;51.222;6.480;2024-02-28T03:00:21;20.30;52.40
36498;DHT22;22513;51.222;6.480;2024-02-28T03:02:46;20.30;52.40
36498;DHT22;22513;51.222;6.480;2024-02-28T03:05:12;20.40;52.50
36498;DHT22;22513;51.222;6.480;2024-02-28T03:07:38;20.30;52.40
36498;DHT22;22513;51.222;6.480;2024-02-28T03:10:04;20.30;52.40
36498;DHT22;22513;51.222;6.480;2024-02-28T03:12:29;20.30;52.40
36498;DHT22;22513;51.222;6.480;2024-02-28T03:14:55;20.30;52.40
36498;DHT22;22513;51.222;6.480;2024-02-28T03:17:21;20.30;52.40
36498;DHT22;22513;51.222;6.480;2024-02-28T03:19:46;20.30;52.40
36498;DHT22;22513;51.222;6.480;2024-02-28T03:22:12;20.30;52.40
36498;DHT22;22513;51.222;6.480;2024-02-28T03:24:38;20.30;52.40
36498;DHT22;22513;51.222;6.480;2024-02-28T03:27:04;20.30;52.40
36498;DHT22;22513;51.222;6.480;2024-02-28T03:29:29;20.30;52.40
36498;DHT22;22513;51.222;6.480;2024-02-28T03:31:55;20.30;52.40
36498;DHT22;22513;51.222;6.480;2024-02-28T03:34:24;20.30;52.40
36498;DHT22;22513;51.222;6.480;2024-02-28T03:36:50;20.30;52.50
36498;DHT22;22513;51.222;6.480;2024-02-28T03:39:16;20.30;52.50
36498;DHT22;22513;51.222;6.480;2024-02-28T03:41:42;20.30;52.40
36498;DHT22;22513;51.222;6.480;2024-02-28T03:44:07;20.30;52.40
36498;DHT22;22513;51.222;6.480;2024-02-28T03:46:33;20.30;52.50
36498;DHT22;22513;51.222;6.480;2024-02-28T03:48:59;20.30;52.50
36498;DHT22;22513;51.222;6.480;2024-02-28T03:51:24;20.30;52.50
36498;DHT22;22513;51.222;6.480;2024-02-28T03:53:50;20.30;52.50
36498;DHT22;22513;51.222;6.480;2024-02-28T03:56:23;20.30;52.50
36498;DHT22;22513;51.222;6.480;2024-02-28T03:58:50;20.30;52.50
36498;DHT22;22513;51.222;6.480;2024-02-28T04:01:15;20.30;52.50
36498;DHT22;22513;51.222;6.480;2024-02-28T04:03:41;20.30;52.50
36498;DHT22;22513;51.222;6.480;2024-02-28T04:06:07;20.30;52.50
36498;DHT22;22513;51.222;6.480;2024-02-28T04:08:32;20.30;52.50
36498;DHT22;22513;51.222;6.480;2024-02-28T04:10:58;20.30;52.50
36498;DHT22;22513;51.222;6.480;2024-02-28T04:13:23;20.30;52.50
36498;DHT22;22513;51.222;6.480;2024-02-28T04:15:49;20.30;52.50
36498;DHT22;22513;51.222;6.480;2024-02-28T04:18:15;20.30;52.50
36498;DHT22;22513;51.222;6.480;2024-02-28T04:20:40;20.30;52.50
36498;DHT22;22513;51.222;6.480;2024-02-28T04:23:06;20.30;52.50
36498;DHT22;22513;51.222;6.480;2024-02-28T04:25:31;20.40;52.50
36498;DHT22;22513;51.222;6.480;2024-02-28T04:27:57;20.30;52.50
36498;DHT22;22513;51.222;6.480;2024-02-28T04:30:23;20.30;52.50
36498;DHT22;22513;51.222;6.480;2024-02-28T04:32:48;20.40;52.50
36498;DHT22;22513;51.222;6.480;2024-02-28T04:35:15;20.30;52.50
36498;DHT22;22513;51.222;6.480;2024-02-28T04:37:44;20.30;52.50
36498;DHT22;22513;51.222;6.480;2024-02-28T04:40:11;20.40;52.50
36498;DHT22;22513;51.222;6.480;2024-02-28T04:42:36;20.30;52.50
36498;DHT22;22513;51.222;6.480;2024-02-28T04:45:03;20.30;52.50
36498;DHT22;22513;51.222;6.480;2024-02-28T04:47:29;20.30;52.50
36498;DHT22;22513;51.222;6.480;2024-02-28T04:49:56;20.30;52.50
36498;DHT22;22513;51.222;6.480;2024-02-28T04:52:22;20.40;52.60
36498;DHT22;22513;51.222;6.480;2024-02-28T04:54:47;20.30;52.60
36498;DHT22;22513;51.222;6.480;2024-02-28T04:57:13;20.30;52.50
36498;DHT22;22513;51.222;6.480;2024-02-28T04:59:39;20.30;52.50
36498;DHT22;22513;51.222;6.480;2024-02-28T05:02:06;20.40;52.60
36498;DHT22;22513;51.222;6.480;2024-02-28T05:04:31;20.30;52.50
36498;DHT22;22513;51.222;6.480;2024-02-28T05:06:57;20.30;52.50
36498;DHT22;22513;51.222;6.480;2024-02-28T05:09:23;20.30;52.50
36498;DHT22;22513;51.222;6.480;2024-02-28T05:11:48;20.30;52.50
36498;DHT22;22513;51.222;6.480;2024-02-28T05:14:14;20.40;52.50
36498;DHT22;22513;51.222;6.480;2024-02-28T05:16:39;20.40;52.40
36498;DHT22;22513;51.222;6.480;2024-02-28T05:19:05;20.40;52.30
36498;DHT22;22513;51.222;6.480;2024-02-28T05:21:31;20.30;52.20
36498;DHT22;22513;51.222;6.480;2024-02-28T05:23:56;20.30;52.20
36498;DHT22;22513;51.222;6.480;2024-02-28T05:26:22;20.30;52.00
36498;DHT22;22513;51.222;6.480;2024-02-28T05:28:47;20.30;51.90
36498;DHT22;22513;51.222;6.480;2024-02-28T05:31:26;20.30;51.90
36498;DHT22;22513;51.222;6.480;2024-02-28T05:33:52;20.30;51.70
36498;DHT22;22513;51.222;6.480;2024-02-28T05:36:20;20.30;51.70
36498;DHT22;22513;51.222;6.480;2024-02-28T05:38:46;20.30;51.70
36498;DHT22;22513;51.222;6.480;2024-02-28T05:41:12;20.30;51.50
36498;DHT22;22513;51.222;6.480;2024-02-28T05:43:38;20.30;51.40
36498;DHT22;22513;51.222;6.480;2024-02-28T05:46:04;20.30;51.40
36498;DHT22;22513;51.222;6.480;2024-02-28T05:48:29;20.40;51.40
36498;DHT22;22513;51.222;6.480;2024-02-28T05:50:55;20.40;51.30
36498;DHT22;22513;51.222;6.480;2024-02-28T05:53:20;20.30;51.30
36498;DHT22;22513;51.222;6.480;2024-02-28T05:55:46;20.30;51.20
36498;DHT22;22513;51.222;6.480;2024-02-28T05:58:13;20.30;51.10
36498;DHT22;22513;51.222;6.480;2024-02-28T06:00:39;20.30;51.10
36498;DHT22;22513;51.222;6.480;2024-02-28T06:03:04;20.40;51.10
36498;DHT22;22513;51.222;6.480;2024-02-28T06:05:30;20.30;51.10
36498;DHT22;22513;51.222;6.480;2024-02-28T06:07:56;20.30;51.70
36498;DHT22;22513;51.222;6.480;2024-02-28T06:10:22;20.30;51.00
36498;DHT22;22513;51.222;6.480;2024-02-28T06:12:47;20.40;51.00
36498;DHT22;22513;51.222;6.480;2024-02-28T06:15:13;20.30;50.90
36498;DHT22;22513;51.222;6.480;2024-02-28T06:17:39;20.40;50.90
36498;DHT22;22513;51.222;6.480;2024-02-28T06:20:05;20.40;50.90
36498;DHT22;22513;51.222;6.480;2024-02-28T06:22:31;20.30;50.80
36498;DHT22;22513;51.222;6.480;2024-02-28T06:24:57;20.40;50.80
36498;DHT22;22513;51.222;6.480;2024-02-28T06:27:22;20.40;51.50
36498;DHT22;22513;51.222;6.480;2024-02-28T06:29:48;20.30;50.80
36498;DHT22;22513;51.222;6.480;2024-02-28T06:32:14;20.30;50.80
36498;DHT22;22513;51.222;6.480;2024-02-28T06:34:41;20.40;50.80
36498;DHT22;22513;51.222;6.480;2024-02-28T06:37:07;20.30;50.70
36498;DHT22;22513;51.222;6.480;2024-02-28T06:39:33;20.40;50.80
36498;DHT22;22513;51.222;6.480;2024-02-28T06:41:58;20.40;50.70
36498;DHT22;22513;51.222;6.480;2024-02-28T06:44:24;20.40;50.90
36498;DHT22;22513;51.222;6.480;2024-02-28T06:46:50;20.40;50.70
36498;DHT22;22513;51.222;6.480;2024-02-28T06:49:15;20.40;50.70
36498;DHT22;22513;51.222;6.480;2024-02-28T06:51:44;20.40;50.70
36498;DHT22;22513;51.222;6.480;2024-02-28T06:54:09;20.40;50.70
36498;DHT22;22513;51.222;6.480;2024-02-28T06:56:36;20.40;50.70
36498;DHT22;22513;51.222;6.480;2024-02-28T06:59:02;20.40;50.60
36498;DHT22;22513;51.222;6.480;2024-02-28T07:01:29;20.40;50.60
36498;DHT22;22513;51.222;6.480;2024-02-28T07:03:55;20.40;50.60
36498;DHT22;22513;51.222;6.480;2024-02-28T07:06:20;20.40;50.60
36498;DHT22;22513;51.222;6.480;2024-02-28T07:08:46;20.40;50.60
36498;DHT22;22513;51.222;6.480;2024-02-28T07:11:15;20.40;50.60
36498;DHT22;22513;51.222;6.480;2024-02-28T07:13:41;20.40;50.50
36498;DHT22;22513;51.222;6.480;2024-02-28T07:16:09;20.40;50.50
36498;DHT22;22513;51.222;6.480;2024-02-28T07:18:34;20.40;50.60
36498;DHT22;22513;51.222;6.480;2024-02-28T07:21:00;20.40;50.50
36498;DHT22;22513;51.222;6.480;2024-02-28T07:23:26;20.40;50.50
36498;DHT22;22513;51.222;6.480;2024-02-28T07:25:51;20.40;50.50
36498;DHT22;22513;51.222;6.480;2024-02-28T07:28:17;20.40;50.50
36498;DHT22;22513;51.222;6.480;2024-02-28T07:30:43;20.40;50.50
36498;DHT22;22513;51.222;6.480;2024-02-28T07:33:10;20.40;50.50
36498;DHT22;22513;51.222;6.480;2024-02-28T07:35:46;20.40;50.50
36498;DHT22;22513;51.222;6.480;2024-02-28T07:38:11;20.50;50.50
36498;DHT22;22513;51.222;6.480;2024-02-28T07:40:37;20.50;50.50
36498;DHT22;22513;51.222;6.480;2024-02-28T07:43:03;20.50;50.50
36498;DHT22;22513;51.222;6.480;2024-02-28T07:45:28;20.50;50.60
36498;DHT22;22513;51.222;6.480;2024-02-28T07:47:54;20.50;50.80
36498;DHT22;22513;51.222;6.480;2024-02-28T07:50:20;20.50;50.90
36498;DHT22;22513;51.222;6.480;2024-02-28T07:52:45;20.50;51.00
36498;DHT22;22513;51.222;6.480;2024-02-28T07:55:11;20.50;51.00
36498;DHT22;22513;51.222;6.480;2024-02-28T07:57:36;20.50;51.00
36498;DHT22;22513;51.222;6.480;2024-02-28T08:00:03;20.60;51.00
36498;DHT22;22513;51.222;6.480;2024-02-28T08:02:29;20.50;51.00
36498;DHT22;22513;51.222;6.480;2024-02-28T08:04:54;20.50;51.00
36498;DHT22;22513;51.222;6.480;2024-02-28T08:07:20;20.60;51.00
36498;DHT22;22513;51.222;6.480;2024-02-28T08:09:45;20.60;50.90
36498;DHT22;22513;51.222;6.480;2024-02-28T08:12:11;20.60;50.90
36498;DHT22;22513;51.222;6.480;2024-02-28T08:14:36;20.60;50.90
36498;DHT22;22513;51.222;6.480;2024-02-28T08:17:02;20.60;50.90
36498;DHT22;22513;51.222;6.480;2024-02-28T08:19:28;20.60;50.90
36498;DHT22;22513;51.222;6.480;2024-02-28T08:21:53;20.60;50.90
36498;DHT22;22513;51.222;6.480;2024-02-28T08:24:19;20.60;50.80
36498;DHT22;22513;51.222;6.480;2024-02-28T08:26:45;20.60;50.80
36498;DHT22;22513;51.222;6.480;2024-02-28T08:29:10;20.60;50.80
36498;DHT22;22513;51.222;6.480;2024-02-28T08:31:43;20.60;50.80
36498;DHT22;22513;51.222;6.480;2024-02-28T08:34:09;20.60;50.70
36498;DHT22;22513;51.222;6.480;2024-02-28T08:36:35;20.60;50.70
36498;DHT22;22513;51.222;6.480;2024-02-28T08:39:03;20.70;50.70
36498;DHT22;22513;51.222;6.480;2024-02-28T08:41:33;20.70;50.80
36498;DHT22;22513;51.222;6.480;2024-02-28T08:43:58;20.70;50.70
36498;DHT22;22513;51.222;6.480;2024-02-28T08:46:24;20.70;50.70
36498;DHT22;22513;51.222;6.480;2024-02-28T08:48:49;20.70;50.60
36498;DHT22;22513;51.222;6.480;2024-02-28T08:51:15;20.70;50.60
36498;DHT22;22513;51.222;6.480;2024-02-28T08:53:41;20.70;50.60
36498;DHT22;22513;51.222;6.480;2024-02-28T08:56:06;20.70;50.50
36498;DHT22;22513;51.222;6.480;2024-02-28T08:58:32;20.70;50.50
36498;DHT22;22513;51.222;6.480;2024-02-28T09:00:57;20.70;50.50
36498;DHT22;22513;51.222;6.480;2024-02-28T09:03:23;20.70;50.50
36498;DHT22;22513;51.222;6.480;2024-02-28T09:05:49;20.70;50.40
36498;DHT22;22513;51.222;6.480;2024-02-28T09:08:14;20.70;50.50
36498;DHT22;22513;51.222;6.480;2024-02-28T09:10:40;20.70;50.40
36498;DHT22;22513;51.222;6.480;2024-02-28T09:13:06;20.80;50.40
36498;DHT22;22513;51.222;6.480;2024-02-28T09:15:32;20.80;50.50
36498;DHT22;22513;51.222;6.480;2024-02-28T09:17:58;20.70;50.30
36498;DHT22;22513;51.222;6.480;2024-02-28T09:20:24;20.80;50.40
36498;DHT22;22513;51.222;6.480;2024-02-28T09:22:50;20.80;50.40
36498;DHT22;22513;51.222;6.480;2024-02-28T09:25:15;20.80;50.40
36498;DHT22;22513;51.222;6.480;2024-02-28T09:27:43;20.80;50.30
36498;DHT22;22513;51.222;6.480;2024-02-28T09:30:09;20.80;50.30
36498;DHT22;22513;51.222;6.480;2024-02-28T09:32:35;20.80;50.20
36498;DHT22;22513;51.222;6.480;2024-02-28T09:35:03;20.80;50.20
36498;DHT22;22513;51.222;6.480;2024-02-28T09:37:29;20.90;50.20
36498;DHT22;22513;51.222;6.480;2024-02-28T09:39:55;20.20;49.90
36498;DHT22;22513;51.222;6.480;2024-02-28T09:42:21;20.90;50.20
36498;DHT22;22513;51.222;6.480;2024-02-28T09:44:46;20.90;50.20
36498;DHT22;22513;51.222;6.480;2024-02-28T09:47:13;20.90;50.10
36498;DHT22;22513;51.222;6.480;2024-02-28T09:49:39;20.90;50.00
36498;DHT22;22513;51.222;6.480;2024-02-28T09:52:07;21.00;50.00
36498;DHT22;22513;51.222;6.480;2024-02-28T09:54:32;21.00;50.00
36498;DHT22;22513;51.222;6.480;2024-02-28T09:56:58;21.00;50.00
36498;DHT22;22513;51.222;6.480;2024-02-28T09:59:24;21.00;49.90
36498;DHT22;22513;51.222;6.480;2024-02-28T10:01:56;21.00;50.00
36498;DHT22;22513;51.222;6.480;2024-02-28T10:04:25;21.10;49.90
36498;DHT22;22513;51.222;6.480;2024-02-28T10:06:51;21.10;49.90
36498;DHT22;22513;51.222;6.480;2024-02-28T10:09:17;21.10;49.90
36498;DHT22;22513;51.222;6.480;2024-02-28T10:11:43;21.10;49.90
36498;DHT22;22513;51.222;6.480;2024-02-28T10:14:09;21.10;49.90
36498;DHT22;22513;51.222;6.480;2024-02-28T10:16:35;21.10;49.90
36498;DHT22;22513;51.222;6.480;2024-02-28T10:19:00;21.10;49.80
36498;DHT22;22513;51.222;6.480;2024-02-28T10:21:26;21.10;49.80
36498;DHT22;22513;51.222;6.480;2024-02-28T10:23:52;21.10;49.80
36498;DHT22;22513;51.222;6.480;2024-02-28T10:26:17;21.10;49.80
36498;DHT22;22513;51.222;6.480;2024-02-28T10:28:43;21.20;49.80
36498;DHT22;22513;51.222;6.480;2024-02-28T10:31:12;21.20;49.80
36498;DHT22;22513;51.222;6.480;2024-02-28T10:33:37;21.20;49.70
36498;DHT22;22513;51.222;6.480;2024-02-28T10:36:04;21.30;49.70
36498;DHT22;22513;51.222;6.480;2024-02-28T10:38:31;21.30;49.70
36498;DHT22;22513;51.222;6.480;2024-02-28T10:41:02;21.30;49.70
36498;DHT22;22513;51.222;6.480;2024-02-28T10:43:29;21.30;49.60
36498;DHT22;22513;51.222;6.480;2024-02-28T10:45:57;21.30;49.80
36498;DHT22;22513;51.222;6.480;2024-02-28T10:48:25;21.30;49.70
36498;DHT22;22513;51.222;6.480;2024-02-28T10:50:51;21.40;49.70
36498;DHT22;22513;51.222;6.480;2024-02-28T10:53:21;21.50;49.70
36498;DHT22;22513;51.222;6.480;2024-02-28T10:55:48;21.50;49.60
36498;DHT22;22513;51.222;6.480;2024-02-28T10:58:15;21.50;49.60
36498;DHT22;22513;51.222;6.480;2024-02-28T11:00:42;21.60;49.60
36498;DHT22;22513;51.222;6.480;2024-02-28T11:03:09;21.60;49.50
36498;DHT22;22513;51.222;6.480;2024-02-28T11:05:40;21.60;49.50
36498;DHT22;22513;51.222;6.480;2024-02-28T11:08:27;21.60;49.40
36498;DHT22;22513;51.222;6.480;2024-02-28T11:10:57;21.70;49.30
36498;DHT22;22513;51.222;6.480;2024-02-28T11:13:27;21.70;49.20
36498;DHT22;22513;51.222;6.480;2024-02-28T11:15:54;21.70;49.10
36498;DHT22;22513;51.222;6.480;2024-02-28T11:18:22;21.60;49.20
36498;DHT22;22513;51.222;6.480;2024-02-28T11:20:48;21.60;49.30
36498;DHT22;22513;51.222;6.480;2024-02-28T11:23:14;21.50;49.40
36498;DHT22;22513;51.222;6.480;2024-02-28T11:25:42;21.40;49.50
36498;DHT22;22513;51.222;6.480;2024-02-28T11:28:08;21.30;49.60
36498;DHT22;22513;51.222;6.480;2024-02-28T11:30:34;21.30;49.70
36498;DHT22;22513;51.222;6.480;2024-02-28T11:33:00;21.20;49.70
36498;DHT22;22513;51.222;6.480;2024-02-28T11:35:26;21.20;49.80
36498;DHT22;22513;51.222;6.480;2024-02-28T11:37:55;21.20;49.80
36498;DHT22;22513;51.222;6.480;2024-02-28T11:40:26;21.10;49.80
36498;DHT22;22513;51.222;6.480;2024-02-28T11:42:52;21.10;49.90
36498;DHT22;22513;51.222;6.480;2024-02-28T11:45:18;21.10;49.90
36498;DHT22;22513;51.222;6.480;2024-02-28T11:47:44;21.10;49.90
36498;DHT22;22513;51.222;6.480;2024-02-28T11:50:10;21.00;49.90
36498;DHT22;22513;51.222;6.480;2024-02-28T11:52:36;21.00;49.90
36498;DHT22;22513;51.222;6.480;2024-02-28T11:55:02;21.00;50.00
36498;DHT22;22513;51.222;6.480;2024-02-28T11:57:27;21.00;50.70
36498;DHT22;22513;51.222;6.480;2024-02-28T11:59:55;21.00;50.00
36498;DHT22;22513;51.222;6.480;2024-02-28T12:02:23;21.00;50.00
36498;DHT22;22513;51.222;6.480;2024-02-28T12:04:51;20.90;50.00
36498;DHT22;22513;51.222;6.480;2024-02-28T12:07:18;20.90;50.00
36498;DHT22;22513;51.222;6.480;2024-02-28T12:09:44;20.90;50.00
36498;DHT22;22513;51.222;6.480;2024-02-28T12:12:12;20.90;50.00
36498;DHT22;22513;51.222;6.480;2024-02-28T12:14:37;20.90;50.10
36498;DHT22;22513;51.222;6.480;2024-02-28T12:17:08;20.90;50.10
36498;DHT22;22513;51.222;6.480;2024-02-28T12:19:35;20.90;50.10
36498;DHT22;22513;51.222;6.480;2024-02-28T12:22:01;20.90;50.10
36498;DHT22;22513;51.222;6.480;2024-02-28T12:24:26;20.90;50.10
36498;DHT22;22513;51.222;6.480;2024-02-28T12:26:54;20.90;50.20
36498;DHT22;22513;51.222;6.480;2024-02-28T12:29:21;20.90;50.20
36498;DHT22;22513;51.222;6.480;2024-02-28T12:31:47;20.90;50.20
36498;DHT22;22513;51.222;6.480;2024-02-28T12:34:12;20.90;50.20
36498;DHT22;22513;51.222;6.480;2024-02-28T12:36:40;20.90;50.20
36498;DHT22;22513;51.222;6.480;2024-02-28T12:39:07;20.80;50.20
36498;DHT22;22513;51.222;6.480;2024-02-28T12:41:33;20.80;50.20
36498;DHT22;22513;51.222;6.480;2024-02-28T12:43:58;20.80;50.20
36498;DHT22;22513;51.222;6.480;2024-02-28T12:46:24;20.90;50.30
36498;DHT22;22513;51.222;6.480;2024-02-28T12:48:49;20.80;50.20
36498;DHT22;22513;51.222;6.480;2024-02-28T12:53:45;20.80;50.20
36498;DHT22;22513;51.222;6.480;2024-02-28T12:56:11;20.80;50.30
36498;DHT22;22513;51.222;6.480;2024-02-28T12:58:37;20.80;50.20
36498;DHT22;22513;51.222;6.480;2024-02-28T13:01:03;20.80;50.30
36498;DHT22;22513;51.222;6.480;2024-02-28T13:03:30;20.80;50.30
36498;DHT22;22513;51.222;6.480;2024-02-28T13:05:56;20.80;50.30
36498;DHT22;22513;51.222;6.480;2024-02-28T13:08:21;20.80;50.30
36498;DHT22;22513;51.222;6.480;2024-02-28T13:10:47;20.80;50.30
36498;DHT22;22513;51.222;6.480;2024-02-28T13:13:12;20.80;50.30
36498;DHT22;22513;51.222;6.480;2024-02-28T13:15:39;20.80;50.30
36498;DHT22;22513;51.222;6.480;2024-02-28T13:18:05;20.80;50.30
36498;DHT22;22513;51.222;6.480;2024-02-28T13:20:35;20.80;50.30
36498;DHT22;22513;51.222;6.480;2024-02-28T13:23:00;20.80;50.30
36498;DHT22;22513;51.222;6.480;2024-02-28T13:25:26;20.80;50.30
36498;DHT22;22513;51.222;6.480;2024-02-28T13:27:52;20.80;50.30
36498;DHT22;22513;51.222;6.480;2024-02-28T13:30:17;20.80;50.30
36498;DHT22;22513;51.222;6.480;2024-02-28T13:32:43;20.80;50.20
36498;DHT22;22513;51.222;6.480;2024-02-28T13:35:09;20.80;50.30
36498;DHT22;22513;51.222;6.480;2024-02-28T13:37:35;20.80;50.20
36498;DHT22;22513;51.222;6.480;2024-02-28T13:40:02;20.80;50.20
36498;DHT22;22513;51.222;6.480;2024-02-28T13:42:30;20.80;50.20
36498;DHT22;22513;51.222;6.480;2024-02-28T13:44:55;20.80;50.20
36498;DHT22;22513;51.222;6.480;2024-02-28T13:47:21;20.80;50.20
36498;DHT22;22513;51.222;6.480;2024-02-28T13:49:46;20.80;50.20
36498;DHT22;22513;51.222;6.480;2024-02-28T13:52:12;20.80;50.20
36498;DHT22;22513;51.222;6.480;2024-02-28T13:54:38;20.80;50.20
36498;DHT22;22513;51.222;6.480;2024-02-28T13:57:04;20.80;50.20
36498;DHT22;22513;51.222;6.480;2024-02-28T13:59:30;20.80;50.20
36498;DHT22;22513;51.222;6.480;2024-02-28T14:01:56;20.70;50.10
36498;DHT22;22513;51.222;6.480;2024-02-28T14:04:22;20.80;50.20
36498;DHT22;22513;51.222;6.480;2024-02-28T14:06:48;20.80;50.20
36498;DHT22;22513;51.222;6.480;2024-02-28T14:09:14;20.80;50.20
36498;DHT22;22513;51.222;6.480;2024-02-28T14:11:40;20.80;50.20
36498;DHT22;22513;51.222;6.480;2024-02-28T14:14:06;20.80;50.20
36498;DHT22;22513;51.222;6.480;2024-02-28T14:16:32;20.80;50.20
36498;DHT22;22513;51.222;6.480;2024-02-28T14:18:58;20.80;50.20
36498;DHT22;22513;51.222;6.480;2024-02-28T14:21:24;20.80;50.20
36498;DHT22;22513;51.222;6.480;2024-02-28T14:23:50;20.80;50.90
36498;DHT22;22513;51.222;6.480;2024-02-28T14:26:16;20.80;50.20
36498;DHT22;22513;51.222;6.480;2024-02-28T14:28:42;20.80;50.20
36498;DHT22;22513;51.222;6.480;2024-02-28T14:31:08;20.80;50.20
36498;DHT22;22513;51.222;6.480;2024-02-28T14:33:33;20.80;50.20
36498;DHT22;22513;51.222;6.480;2024-02-28T14:36:00;20.80;50.10
36498;DHT22;22513;51.222;6.480;2024-02-28T14:38:26;20.80;50.10
36498;DHT22;22513;51.222;6.480;2024-02-28T14:40:51;20.80;50.10
36498;DHT22;22513;51.222;6.480;2024-02-28T14:43:17;20.80;50.10
36498;DHT22;22513;51.222;6.480;2024-02-28T14:45:43;20.80;50.10
36498;DHT22;22513;51.222;6.480;2024-02-28T14:48:08;20.80;50.00
36498;DHT22;22513;51.222;6.480;2024-02-28T14:50:34;20.80;50.00
36498;DHT22;22513;51.222;6.480;2024-02-28T14:52:59;20.80;50.00
36498;DHT22;22513;51.222;6.480;2024-02-28T14:55:25;20.80;49.90
36498;DHT22;22513;51.222;6.480;2024-02-28T14:57:51;20.80;49.90
36498;DHT22;22513;51.222;6.480;2024-02-28T15:00:16;20.80;50.50
36498;DHT22;22513;51.222;6.480;2024-02-28T15:02:43;20.80;49.90
36498;DHT22;22513;51.222;6.480;2024-02-28T15:05:10;20.80;49.80
36498;DHT22;22513;51.222;6.480;2024-02-28T15:07:37;20.80;49.80
36498;DHT22;22513;51.222;6.480;2024-02-28T15:10:03;20.80;49.70
36498;DHT22;22513;51.222;6.480;2024-02-28T15:12:30;20.80;49.70
36498;DHT22;22513;51.222;6.480;2024-02-28T15:14:56;20.80;49.60
36498;DHT22;22513;51.222;6.480;2024-02-28T15:17:22;20.80;49.60
36498;DHT22;22513;51.222;6.480;2024-02-28T15:19:48;20.80;49.60
36498;DHT22;22513;51.222;6.480;2024-02-28T15:22:14;20.80;49.50
36498;DHT22;22513;51.222;6.480;2024-02-28T15:24:39;20.80;49.50
36498;DHT22;22513;51.222;6.480;2024-02-28T15:27:08;20.80;49.50
36498;DHT22;22513;51.222;6.480;2024-02-28T15:29:34;20.80;49.40